Time;durP1;ratioP1;P1;durP2;ratioP2;P2;SDS_P1;SDS_P2;PMS_P1;PMS_P2;Temp;Humidity;BMP_temperature;BMP_pressure;BME280_temperature;BME280_humidity;BME280_pressure;Samples;Min_cycle;Max_cycle;Signal;HPM_P1;HPM_P2
2023/03/23 00:01:36;;;;;;;7.22;2.45;;;9.50;70.90;;;;;;5015595;28;20289;-92
2023/03/23 00:04:04;;;;;;;4.22;2.80;;;9.50;71.50;;;;;;5037502;28;20213;-92
2023/03/23 00:06:34;;;;;;;3.63;2.65;;;9.50;71.60;;;;;;5040420;28;20202;-93
2023/03/23 00:09:05;;;;;;;3.28;2.47;;;9.50;71.50;;;;;;5041727;28;20202;-92
2023/03/23 00:16:57;;;;;;;3.15;2.80;;;9.40;72.30;;;;;;5037726;28;20218;-92
2023/03/23 00:19:46;;;;;;;3.40;2.80;;;9.50;70.50;;;;;;5032267;28;21007;-92
2023/03/23 00:22:15;;;;;;;6.70;2.75;;;9.50;71.50;;;;;;5042905;22;20250;-92
2023/03/23 00:24:42;;;;;;;4.30;2.60;;;9.60;74.00;;;;;;5034303;28;20194;-92
2023/03/23 00:27:12;;;;;;;4.53;2.88;;;9.50;74.50;;;;;;5035469;28;20195;-92
2023/03/23 00:35:06;;;;;;;3.85;2.50;;;9.40;74.30;;;;;;5032167;28;20707;-92
2023/03/23 00:37:33;;;;;;;3.92;2.75;;;9.40;74.30;;;;;;5035902;28;20206;-92
2023/03/23 00:40:00;;;;;;;3.58;2.80;;;9.40;74.30;;;;;;5040732;28;20289;-92
2023/03/23 00:42:28;;;;;;;3.80;2.55;;;9.40;74.40;;;;;;5035357;28;20207;-93
2023/03/23 00:47:37;;;;;;;4.43;2.70;;;9.40;74.30;;;;;;5035509;28;20217;-92
2023/03/23 00:50:05;;;;;;;4.55;2.67;;;9.60;73.90;;;;;;5025991;28;20213;-93
2023/03/23 00:52:32;;;;;;;5.15;2.78;;;9.50;73.00;;;;;;5016877;28;20229;-92
2023/03/23 00:54:59;;;;;;;4.25;2.80;;;9.60;74.50;;;;;;5028916;28;20203;-92
2023/03/23 00:57:29;;;;;;;4.22;2.70;;;9.60;74.60;;;;;;5036706;28;20651;-92
2023/03/23 01:02:40;;;;;;;7.20;2.83;;;9.50;74.40;;;;;;5028283;28;20256;-92
2023/03/23 01:05:08;;;;;;;5.15;2.72;;;9.50;74.50;;;;;;5054104;28;20285;-92
2023/03/23 01:07:35;;;;;;;3.28;2.60;;;9.50;74.60;;;;;;5032919;28;20214;-92
2023/03/23 01:10:02;;;;;;;4.55;2.58;;;9.50;74.50;;;;;;5033767;28;20207;-92
2023/03/23 01:12:29;;;;;;;2.92;2.50;;;9.50;74.40;;;;;;5029345;28;20218;-92
2023/03/23 01:17:41;;;;;;;4.82;2.40;;;9.60;74.50;;;;;;5025469;28;20186;-92
2023/03/23 01:22:50;;;;;;;3.38;2.40;;;9.60;74.50;;;;;;5030616;28;20230;-92
2023/03/23 01:25:17;;;;;;;2.65;2.05;;;9.50;75.20;;;;;;5033626;28;20206;-92
2023/03/23 01:27:44;;;;;;;4.43;2.63;;;9.50;76.00;;;;;;5042803;28;20206;-92
2023/03/23 01:30:15;;;;;;;2.50;2.30;;;9.50;77.20;;;;;;5032498;28;20219;-92
2023/03/23 01:32:42;;;;;;;2.97;2.40;;;9.40;80.20;;;;;;5033323;28;20222;-92
2023/03/23 01:35:10;;;;;;;4.57;2.20;;;9.50;77.70;;;;;;5044389;28;20202;-92
2023/03/23 01:37:37;;;;;;;3.97;2.20;;;9.50;76.80;;;;;;5032901;28;20203;-92
2023/03/23 01:40:05;;;;;;;2.65;2.40;;;9.50;76.00;;;;;;5027348;28;20195;-92
2023/03/23 01:51:21;;;;;;;4.13;2.33;;;9.40;76.50;;;;;;5032602;28;20245;-92
2023/03/23 01:53:52;;;;;;;2.85;2.30;;;9.50;76.50;;;;;;5037384;28;20671;-92
2023/03/23 01:59:03;;;;;;;3.55;2.30;;;9.50;76.40;;;;;;5038130;28;20202;-92
2023/03/23 02:01:40;;;;;;;3.78;2.25;;;9.40;76.50;;;;;;5054725;28;20262;-92
2023/03/23 02:04:07;;;;;;;3.47;2.20;;;9.40;77.70;;;;;;5043662;28;20186;-91
2023/03/23 02:06:34;;;;;;;3.88;2.58;;;9.30;78.40;;;;;;5073232;28;20182;-93
2023/03/23 02:09:02;;;;;;;3.17;2.00;;;9.30;79.20;;;;;;5038915;28;20209;-92
2023/03/23 02:11:29;;;;;;;3.90;2.20;;;9.30;78.40;;;;;;5037844;28;20221;-92
2023/03/23 02:13:56;;;;;;;4.15;2.40;;;9.40;77.90;;;;;;5037872;28;20297;-92
2023/03/23 02:16:42;;;;;;;3.38;2.17;;;9.40;78.10;;;;;;5036388;28;20202;-92
2023/03/23 02:20:07;;;;;;;4.38;2.08;;;9.40;78.60;;;;;;5039135;28;20252;-92
2023/03/23 02:32:35;;;;;;;5.28;1.92;;;9.40;78.30;;;;;;4980796;28;20341;-92
2023/03/23 02:35:08;;;;;;;2.03;1.85;;;9.50;78.50;;;;;;5054813;28;20205;-92
2023/03/23 02:37:40;;;;;;;4.70;2.00;;;9.50;78.70;;;;;;5003506;28;20669;-92
2023/03/23 02:45:39;;;;;;;4.22;2.10;;;9.60;77.70;;;;;;5026132;28;20659;-92
2023/03/23 02:48:08;;;;;;;2.72;2.20;;;9.60;77.40;;;;;;5038700;28;20226;-92
2023/03/23 02:53:43;;;;;;;2.75;2.13;;;9.50;78.90;;;;;;5035328;28;20226;-91
2023/03/23 02:56:11;;;;;;;2.83;2.10;;;9.40;78.90;;;;;;5031182;28;20195;-92
2023/03/23 02:58:38;;;;;;;4.95;2.35;;;9.30;80.10;;;;;;5034022;28;20206;-91
2023/03/23 03:01:52;;;;;;;4.53;2.22;;;9.20;81.80;;;;;;5036514;28;20210;-92
2023/03/23 03:04:23;;;;;;;3.30;1.80;;;9.10;82.50;;;;;;5027556;28;20229;-92
2023/03/23 03:23:07;;;;;;;2.22;1.77;;;9.10;83.60;;;;;;5108469;28;20222;-92
2023/03/23 03:25:34;;;;;;;2.25;2.05;;;9.00;83.60;;;;;;5092849;28;20223;-91
2023/03/23 03:28:03;;;;;;;3.00;2.20;;;9.00;84.80;;;;;;5103730;28;20208;-92
2023/03/23 03:33:17;;;;;;;3.88;2.00;;;9.00;85.20;;;;;;5111338;28;20199;-93
2023/03/23 03:41:08;;;;;;;2.55;2.00;;;9.10;86.60;;;;;;5110831;28;20211;-92
2023/03/23 03:43:36;;;;;;;2.45;1.92;;;9.10;84.40;;;;;;5103825;28;20242;-92
2023/03/23 03:46:02;;;;;;;2.67;2.05;;;9.00;84.30;;;;;;5110144;28;20204;-92
2023/03/23 03:48:29;;;;;;;2.70;2.15;;;9.00;85.30;;;;;;5110408;28;20224;-92
2023/03/23 03:51:01;;;;;;;3.92;2.20;;;9.00;84.50;;;;;;5112132;27;20544;-92
2023/03/23 03:56:19;;;;;;;4.55;2.30;;;8.80;89.00;;;;;;5119202;27;20242;-92
2023/03/23 03:58:48;;;;;;;2.75;2.00;;;8.70;88.40;;;;;;5093280;28;20189;-92
2023/03/23 04:04:14;;;;;;;3.22;2.10;;;8.70;87.80;;;;;;5055182;28;20201;-92
2023/03/23 04:07:37;;;;;;;2.28;1.90;;;8.70;87.60;;;;;;5099247;28;20208;-92
2023/03/23 04:13:28;;;;;;;2.85;2.22;;;8.80;86.30;;;;;;5001404;28;20199;-92
2023/03/23 04:15:55;;;;;;;4.30;1.98;;;8.80;87.20;;;;;;4985431;28;20656;-92
2023/03/23 04:19:00;;;;;;;2.63;2.20;;;8.80;87.50;;;;;;5066576;28;20679;-92
2023/03/23 04:21:28;;;;;;;2.17;1.95;;;8.90;86.50;;;;;;5092084;28;20281;-92
2023/03/23 04:23:55;;;;;;;2.40;2.00;;;8.90;86.00;;;;;;5082258;28;20279;-92
2023/03/23 04:29:05;;;;;;;2.42;2.22;;;8.80;88.20;;;;;;5088507;28;20589;-91
2023/03/23 04:31:34;;;;;;;5.78;2.60;;;8.70;88.50;;;;;;5090940;28;20202;-91
2023/03/23 04:34:19;;;;;;;3.50;2.00;;;8.70;88.50;;;;;;5084365;28;20638;-91
2023/03/23 04:36:48;;;;;;;1.95;1.73;;;8.80;87.90;;;;;;5083897;28;20236;-91
2023/03/23 04:39:15;;;;;;;3.42;2.35;;;8.80;88.10;;;;;;5083827;28;20204;-91
2023/03/23 04:44:24;;;;;;;2.20;1.95;;;8.80;87.70;;;;;;5094938;28;20199;-92
2023/03/23 04:46:53;;;;;;;2.38;1.98;;;8.90;87.10;;;;;;5091832;28;20208;-92
2023/03/23 04:49:21;;;;;;;2.78;2.10;;;8.90;86.80;;;;;;5088560;28;20250;-91
2023/03/23 04:51:50;;;;;;;3.15;1.92;;;9.00;86.30;;;;;;5094846;28;20192;-92
2023/03/23 04:54:17;;;;;;;2.20;1.90;;;8.90;86.70;;;;;;5091638;28;20203;-91
2023/03/23 04:56:46;;;;;;;3.67;2.13;;;8.90;88.10;;;;;;5078865;28;20201;-91
2023/03/23 04:59:14;;;;;;;3.17;1.80;;;8.90;87.40;;;;;;5072765;28;20197;-91
2023/03/23 05:01:45;;;;;;;2.72;2.00;;;9.00;87.50;;;;;;5082293;28;20224;-91
2023/03/23 05:04:16;;;;;;;6.55;2.20;;;9.00;88.10;;;;;;5087741;28;20185;-91
2023/03/23 05:07:00;;;;;;;4.60;2.03;;;9.00;90.20;;;;;;5076516;28;20223;-91
2023/03/23 05:09:29;;;;;;;2.63;2.35;;;8.90;90.40;;;;;;5069958;28;20657;-91
2023/03/23 05:14:43;;;;;;;4.30;2.15;;;8.90;90.00;;;;;;5046474;28;20194;-92
2023/03/23 05:17:10;;;;;;;4.53;2.25;;;9.00;89.30;;;;;;5104640;28;20216;-90
2023/03/23 05:19:38;;;;;;;2.83;1.63;;;9.00;89.00;;;;;;5106763;28;20192;-91
2023/03/23 05:22:05;;;;;;;3.53;1.98;;;9.00;89.30;;;;;;5104193;28;20201;-91
2023/03/23 05:24:32;;;;;;;3.65;2.10;;;9.10;87.40;;;;;;5082507;28;20201;-91
2023/03/23 05:27:03;;;;;;;5.70;2.15;;;9.20;87.10;;;;;;5080009;28;20224;-91
2023/03/23 05:29:33;;;;;;;8.98;2.50;;;9.20;88.50;;;;;;5085470;28;20259;-91
2023/03/23 05:32:19;;;;;;;4.95;1.95;;;9.20;88.80;;;;;;5082065;28;20201;-92
2023/03/23 05:34:47;;;;;;;2.45;1.88;;;9.20;90.10;;;;;;5083042;28;20192;-92
2023/03/23 05:37:14;;;;;;;3.55;2.15;;;9.20;89.00;;;;;;5077998;28;20203;-91
2023/03/23 05:39:41;;;;;;;3.53;1.90;;;9.10;88.60;;;;;;5084613;28;20196;-92
2023/03/23 05:42:09;;;;;;;6.55;2.33;;;9.20;90.10;;;;;;5076398;28;20295;-91
2023/03/23 05:44:36;;;;;;;3.20;2.00;;;9.20;89.60;;;;;;5096675;28;20196;-91
2023/03/23 05:50:12;;;;;;;4.57;2.35;;;9.40;87.20;;;;;;5083874;28;20208;-92
2023/03/23 05:52:39;;;;;;;3.60;2.15;;;9.50;85.80;;;;;;5089013;28;20557;-91
2023/03/23 05:55:11;;;;;;;6.53;2.30;;;9.60;84.60;;;;;;5075951;28;20208;-92
2023/03/23 06:00:23;;;;;;;4.18;2.08;;;9.90;81.90;;;;;;5005790;28;20349;-90
2023/03/23 06:02:51;;;;;;;4.63;1.98;;;10.00;77.50;;;;;;5083090;28;20201;-89
2023/03/23 06:05:19;;;;;;;5.45;2.35;;;10.10;78.20;;;;;;5082622;28;20673;-89
2023/03/23 06:07:46;;;;;;;3.78;2.15;;;10.20;77.20;;;;;;5067540;28;20193;-88
2023/03/23 06:10:13;;;;;;;4.28;2.25;;;10.20;77.20;;;;;;5071658;28;20225;-88
2023/03/23 06:12:41;;;;;;;2.90;2.00;;;10.10;75.90;;;;;;5084246;28;20662;-87
2023/03/23 06:15:10;;;;;;;6.82;2.80;;;10.10;76.70;;;;;;5077755;28;20204;-91
2023/03/23 06:17:37;;;;;;;13.20;2.75;;;10.10;77.20;;;;;;5079436;28;20229;-91
2023/03/23 06:20:16;;;;;;;6.00;2.45;;;10.00;77.20;;;;;;5085363;28;20200;-88
2023/03/23 06:25:21;;;;;;;8.85;2.72;;;10.00;77.90;;;;;;5120245;22;20231;-89
2023/03/23 06:27:51;;;;;;;7.95;2.53;;;10.00;78.60;;;;;;5095228;28;20676;-89
2023/03/23 06:30:49;;;;;;;7.55;2.20;;;10.10;79.60;;;;;;5089064;28;20219;-89
2023/03/23 06:33:18;;;;;;;5.70;2.22;;;10.10;79.10;;;;;;5089392;28;20223;-91
2023/03/23 06:42:13;;;;;;;6.53;2.28;;;10.30;79.50;;;;;;5096118;28;20172;-89
2023/03/23 06:47:50;;;;;;;5.40;2.10;;;10.60;77.10;;;;;;5108148;28;20594;-88
2023/03/23 06:50:24;;;;;;;4.35;2.30;;;10.60;78.10;;;;;;5093372;28;20212;-90
2023/03/23 06:53:12;;;;;;;7.40;2.22;;;10.70;76.00;;;;;;5105720;28;20205;-89
2023/03/23 06:58:23;;;;;;;4.95;2.13;;;10.80;74.00;;;;;;5079918;28;20665;-92
2023/03/23 07:01:41;;;;;;;4.72;2.17;;;11.00;72.90;;;;;;5087230;28;20196;-90
2023/03/23 07:04:11;;;;;;;5.47;2.15;;;11.10;70.90;;;;;;5104798;28;20549;-91
2023/03/23 07:09:43;;;;;;;14.35;2.97;;;11.20;69.90;;;;;;5089543;28;20246;-91
2023/03/23 07:12:11;;;;;;;9.60;2.40;;;11.30;68.40;;;;;;5093880;28;20203;-92
2023/03/23 07:14:58;;;;;;;12.02;2.63;;;11.40;67.50;;;;;;5103461;28;20291;-93
2023/03/23 07:17:27;;;;;;;13.63;2.50;;;11.50;67.80;;;;;;5099450;28;20203;-94
2023/03/23 07:19:54;;;;;;;8.45;2.40;;;11.60;66.30;;;;;;5096745;28;20214;-93
2023/03/23 07:22:21;;;;;;;9.07;2.25;;;11.70;65.50;;;;;;5098721;28;20583;-90
2023/03/23 07:24:50;;;;;;;10.55;2.38;;;11.80;65.30;;;;;;5075758;28;20317;-90
2023/03/23 07:27:17;;;;;;;11.88;2.45;;;11.90;64.50;;;;;;5074535;28;20197;-91
2023/03/23 07:47:04;;;;;;;4.45;2.45;;;13.40;48.30;;;;;;5091076;28;20211;-92
2023/03/23 07:49:33;;;;;;;6.95;2.15;;;13.80;50.10;;;;;;5077220;28;20216;-92
2023/03/23 07:55:02;;;;;;;4.88;2.30;;;14.30;42.60;;;;;;5033165;28;20710;-94
2023/03/23 08:08:46;;;;;;;4.30;2.47;;;14.90;36.20;;;;;;5069726;28;20203;-92
2023/03/23 08:11:15;;;;;;;5.82;2.33;;;14.90;36.90;;;;;;5104254;28;20208;-92
2023/03/23 08:16:25;;;;;;;6.65;2.22;;;14.70;36.20;;;;;;5070568;28;20276;-92
2023/03/23 08:26:59;;;;;;;4.47;1.90;;;14.70;35.40;;;;;;5083208;28;20197;-92
2023/03/23 08:32:08;;;;;;;3.67;2.20;;;14.60;35.80;;;;;;5110263;28;20177;-95
2023/03/23 08:34:36;;;;;;;3.53;1.98;;;14.70;37.20;;;;;;5119544;28;20222;-93
2023/03/23 08:45:56;;;;;;;4.50;2.20;;;14.70;37.40;;;;;;5087871;28;20244;-92
2023/03/23 08:51:05;;;;;;;3.90;2.20;;;14.80;38.30;;;;;;5089859;28;20236;-93
2023/03/23 08:56:14;;;;;;;4.60;2.40;;;15.10;36.70;;;;;;5086591;28;20208;-92
2023/03/23 08:58:42;;;;;;;4.43;2.05;;;15.20;35.50;;;;;;5079118;28;20200;-93
2023/03/23 09:01:09;;;;;;;4.78;2.10;;;15.30;37.20;;;;;;5100471;28;20201;-92
2023/03/23 09:03:38;;;;;;;5.20;2.00;;;15.40;37.00;;;;;;5094566;28;20677;-93
2023/03/23 09:12:01;;;;;;;3.35;2.05;;;15.70;35.60;;;;;;5076147;28;20223;-92
2023/03/23 09:14:30;;;;;;;6.15;2.13;;;15.80;33.30;;;;;;5075858;28;20204;-90
2023/03/23 09:16:57;;;;;;;7.90;2.20;;;16.10;30.60;;;;;;5092282;28;20211;-90
2023/03/23 09:19:24;;;;;;;4.72;2.17;;;16.30;29.00;;;;;;5077433;28;20232;-90
2023/03/23 09:21:51;;;;;;;7.97;2.42;;;16.50;29.20;;;;;;5044916;28;20252;-90
2023/03/23 09:27:19;;;;;;;3.65;2.30;;;16.50;29.10;;;;;;5155470;22;20263;-92
2023/03/23 09:29:48;;;;;;;6.82;2.47;;;16.60;29.20;;;;;;5078432;28;20236;-91
2023/03/23 09:32:34;;;;;;;8.20;2.85;;;16.60;25.00;;;;;;5076136;28;20224;-91
2023/03/23 09:35:02;;;;;;;6.85;2.50;;;16.60;24.60;;;;;;5066787;28;20213;-91
2023/03/23 09:37:54;;;;;;;2.67;2.47;;;16.70;25.30;;;;;;5073131;28;20284;-91
2023/03/23 09:43:39;;;;;;;6.28;2.63;;;17.00;24.10;;;;;;5079265;28;20264;-90
2023/03/23 09:49:04;;;;;;;3.42;2.47;;;17.30;23.10;;;;;;5066809;28;20213;-90
2023/03/23 09:51:48;;;;;;;2.92;2.63;;;17.60;21.70;;;;;;5078952;28;20241;-90
2023/03/23 09:57:07;;;;;;;4.93;2.45;;;17.80;22.20;;;;;;5074133;28;20215;-91
2023/03/23 09:59:50;;;;;;;9.60;2.55;;;17.70;21.70;;;;;;5076732;28;20255;-91
2023/03/23 10:02:42;;;;;;;3.65;2.53;;;18.00;22.00;;;;;;5079164;28;20211;-91
2023/03/23 10:05:30;;;;;;;3.35;2.47;;;18.30;20.00;;;;;;5080830;28;20189;-91
2023/03/23 10:07:57;;;;;;;5.07;2.58;;;18.60;20.30;;;;;;5075770;28;20243;-92
2023/03/23 10:10:42;;;;;;;3.40;2.65;;;18.80;18.50;;;;;;5076776;28;20217;-91
2023/03/23 10:28:03;;;;;;;4.30;3.33;;;18.50;17.70;;;;;;5078147;28;20665;-92
2023/03/23 10:43:39;;;;;;;3.97;3.40;;;17.70;21.10;;;;;;5062332;28;20251;-91
2023/03/23 10:46:23;;;;;;;3.92;3.38;;;17.70;20.90;;;;;;5076372;28;20204;-91
2023/03/23 11:14:14;;;;;;;5.40;3.38;;;18.10;19.40;;;;;;5096161;28;20199;-91
2023/03/23 11:19:40;;;;;;;6.05;3.40;;;18.10;19.60;;;;;;5095812;28;20228;-91
2023/03/23 11:30:38;;;;;;;6.60;3.60;;;18.40;19.40;;;;;;5086015;28;20189;-90
2023/03/23 11:33:07;;;;;;;5.05;3.35;;;18.50;19.00;;;;;;5086892;28;20231;-91
2023/03/23 11:35:49;;;;;;;17.08;12.23;;;18.70;19.50;;;;;;5095674;28;20273;-91
2023/03/23 11:41:00;;;;;;;4.80;3.20;;;19.00;17.70;;;;;;5094017;28;20599;-93
2023/03/23 11:43:30;;;;;;;4.10;3.15;;;19.00;17.60;;;;;;5091416;28;20193;-91
2023/03/23 12:00:26;;;;;;;10.45;7.65;;;19.50;15.30;;;;;;5069990;28;20201;-90
2023/03/23 12:05:47;;;;;;;5.03;2.95;;;19.30;15.30;;;;;;5082325;28;20203;-89
2023/03/23 12:08:26;;;;;;;3.28;2.90;;;19.30;16.50;;;;;;5079049;28;20246;-90
2023/03/23 12:11:03;;;;;;;4.32;3.17;;;19.40;16.60;;;;;;5078024;28;20649;-89
2023/03/23 12:13:55;;;;;;;5.28;3.80;;;19.30;15.70;;;;;;5073323;28;20197;-93
2023/03/23 12:19:48;;;;;;;5.05;3.20;;;19.30;16.90;;;;;;5062708;28;20224;-91
2023/03/23 12:22:28;;;;;;;4.22;3.17;;;19.40;16.40;;;;;;5070630;28;21053;-92
2023/03/23 12:25:14;;;;;;;5.00;3.25;;;19.30;16.20;;;;;;5077531;28;20251;-93
2023/03/23 12:27:49;;;;;;;6.63;3.50;;;19.40;16.80;;;;;;5078654;28;20205;-94
2023/03/23 12:46:19;;;;;;;4.70;3.10;;;19.80;17.00;;;;;;5042181;23;20264;-93
2023/03/23 12:52:06;;;;;;;8.60;5.65;;;19.40;16.10;;;;;;5035890;28;20225;-94
2023/03/23 12:55:02;;;;;;;6.50;3.20;;;19.30;16.10;;;;;;5018902;28;20199;-92
2023/03/23 12:57:42;;;;;;;4.00;3.22;;;19.40;16.60;;;;;;5024224;28;20207;-92
2023/03/23 13:00:29;;;;;;;3.10;2.80;;;19.50;16.60;;;;;;5020391;28;20228;-92
2023/03/23 13:08:33;;;;;;;5.10;2.88;;;19.40;15.10;;;;;;5024708;28;20210;-93
2023/03/23 13:14:00;;;;;;;3.08;2.00;;;19.30;15.90;;;;;;5016077;28;20199;-90
2023/03/23 13:19:37;;;;;;;4.65;3.00;;;19.30;14.70;;;;;;5012941;28;20281;-90
2023/03/23 13:22:13;;;;;;;3.50;1.83;;;19.20;15.60;;;;;;5013152;28;20227;-90
2023/03/23 13:25:01;;;;;;;4.45;1.98;;;19.20;14.60;;;;;;5014481;28;20234;-90
2023/03/23 13:30:38;;;;;;;2.65;1.80;;;18.80;15.50;;;;;;5008103;28;20211;-90
2023/03/23 13:33:23;;;;;;;2.17;1.70;;;18.80;15.20;;;;;;5009929;28;20204;-91
2023/03/23 13:38:54;;;;;;;4.28;1.90;;;18.90;15.50;;;;;;5022174;28;20223;-90
2023/03/23 13:41:22;;;;;;;3.33;2.00;;;18.90;14.70;;;;;;5006375;28;20226;-89
2023/03/23 13:43:49;;;;;;;4.53;2.13;;;18.90;16.30;;;;;;5004895;28;20202;-88
2023/03/23 13:52:48;;;;;;;9.38;2.10;;;19.00;16.10;;;;;;5009913;28;20208;-88
2023/03/23 13:55:44;;;;;;;5.60;1.83;;;19.00;16.50;;;;;;5009115;28;20321;-88
2023/03/23 13:58:31;;;;;;;5.82;2.20;;;18.90;16.50;;;;;;5010043;28;20639;-88
2023/03/23 14:01:16;;;;;;;3.95;1.88;;;18.90;17.20;;;;;;5010038;28;20961;-87
2023/03/23 14:03:44;;;;;;;4.75;2.03;;;19.00;17.10;;;;;;5008449;28;20203;-88
2023/03/23 14:27:28;;;;;;;3.50;1.75;;;18.60;18.90;;;;;;5648932;23;20230;-88
2023/03/23 14:29:59;;;;;;;4.35;1.90;;;18.40;19.40;;;;;;5029552;28;20202;-88
2023/03/23 14:35:17;;;;;;;2.70;2.00;;;18.20;19.00;;;;;;5003470;28;20201;-89
2023/03/23 14:37:44;;;;;;;2.70;1.63;;;18.30;19.20;;;;;;5011968;28;20203;-90
2023/03/23 14:40:15;;;;;;;6.78;2.15;;;18.20;19.00;;;;;;5010035;28;20236;-90
2023/03/23 14:48:08;;;;;;;3.80;1.90;;;18.30;19.20;;;;;;5031572;28;20217;-90
2023/03/23 14:50:40;;;;;;;3.90;1.83;;;18.20;18.70;;;;;;5031294;28;20191;-90
2023/03/23 14:53:14;;;;;;;3.55;2.00;;;18.20;19.10;;;;;;5034306;28;20286;-92
2023/03/23 14:55:44;;;;;;;4.13;2.10;;;18.20;18.50;;;;;;5033688;28;20213;-89
2023/03/23 15:01:11;;;;;;;3.00;1.90;;;18.20;19.30;;;;;;5032538;28;20202;-90
2023/03/23 15:03:43;;;;;;;2.10;1.63;;;18.20;19.70;;;;;;5017284;28;20306;-90
2023/03/23 15:06:14;;;;;;;4.40;2.00;;;18.10;19.50;;;;;;5033672;28;20198;-88
2023/03/23 15:08:42;;;;;;;3.20;1.90;;;17.90;19.60;;;;;;5039834;28;20209;-88
2023/03/23 15:11:14;;;;;;;3.85;1.95;;;17.90;20.60;;;;;;5032956;28;20221;-88
2023/03/23 15:13:46;;;;;;;3.50;2.13;;;17.80;20.00;;;;;;5026924;28;20675;-88
2023/03/23 15:16:19;;;;;;;2.33;1.90;;;17.70;20.50;;;;;;5034403;28;20221;-90
2023/03/23 15:18:53;;;;;;;2.97;1.83;;;17.70;20.50;;;;;;5015602;28;20289;-89
2023/03/23 15:21:27;;;;;;;5.95;1.90;;;17.60;21.30;;;;;;5037240;28;20199;-90
2023/03/23 15:23:55;;;;;;;2.92;1.85;;;17.60;20.90;;;;;;5035649;28;20193;-88
2023/03/23 15:26:31;;;;;;;5.13;1.95;;;17.60;21.00;;;;;;5031180;28;20214;-88
2023/03/23 15:29:13;;;;;;;2.92;1.90;;;17.60;21.40;;;;;;5028799;28;20202;-90
2023/03/23 15:31:42;;;;;;;4.00;2.15;;;17.60;21.50;;;;;;5053630;28;20186;-90
2023/03/23 15:34:15;;;;;;;3.47;1.80;;;17.60;21.90;;;;;;5030482;28;20277;-88
2023/03/23 15:36:43;;;;;;;2.53;1.80;;;17.60;21.80;;;;;;5049384;28;20198;-89
2023/03/23 15:39:12;;;;;;;3.10;1.95;;;17.50;21.80;;;;;;5036519;28;20225;-89
2023/03/23 15:41:50;;;;;;;3.35;2.17;;;17.50;22.20;;;;;;5050338;28;20194;-90
2023/03/23 15:44:25;;;;;;;3.22;2.03;;;17.50;21.50;;;;;;5050129;28;20527;-89
2023/03/23 15:46:54;;;;;;;4.75;2.05;;;17.40;22.00;;;;;;5037110;28;20334;-88
2023/03/23 15:49:23;;;;;;;3.95;2.20;;;17.40;22.80;;;;;;5060014;28;20220;-88
2023/03/23 15:51:51;;;;;;;2.85;2.30;;;17.30;23.40;;;;;;5037611;28;20281;-87
2023/03/23 15:54:18;;;;;;;4.75;2.10;;;17.30;23.50;;;;;;5045293;28;20197;-91
2023/03/23 15:56:45;;;;;;;3.25;2.00;;;17.20;23.90;;;;;;5056422;28;20212;-89
2023/03/23 15:59:12;;;;;;;3.42;2.10;;;17.10;23.90;;;;;;5053724;28;20202;-92
2023/03/23 16:01:43;;;;;;;2.85;2.00;;;17.10;23.10;;;;;;5049586;28;20203;-91
2023/03/23 16:04:14;;;;;;;2.15;1.95;;;17.00;23.00;;;;;;5034708;28;20203;-93
2023/03/23 16:06:41;;;;;;;2.10;1.90;;;17.00;23.50;;;;;;5048116;28;20210;-93
2023/03/23 16:09:13;;;;;;;4.38;2.00;;;16.90;23.10;;;;;;5052672;28;20205;-92
2023/03/23 16:11:41;;;;;;;2.15;1.80;;;16.90;23.50;;;;;;5049682;28;20190;-92
2023/03/23 16:14:11;;;;;;;3.88;1.88;;;16.80;24.10;;;;;;5061198;28;20284;-93
2023/03/23 16:16:41;;;;;;;4.22;2.08;;;16.70;24.30;;;;;;5045579;28;20201;-93
2023/03/23 16:21:58;;;;;;;2.75;1.90;;;16.50;25.70;;;;;;5049042;28;20226;-93
2023/03/23 16:27:05;;;;;;;4.60;2.10;;;16.40;27.00;;;;;;5037774;28;20806;-94
2023/03/23 16:32:13;;;;;;;6.65;2.30;;;16.20;28.70;;;;;;5044535;28;20197;-93
2023/03/23 16:34:42;;;;;;;4.50;2.28;;;16.20;28.90;;;;;;5035470;28;20198;-93
2023/03/23 16:37:10;;;;;;;3.95;2.10;;;16.20;28.90;;;;;;5040840;28;20202;-93
2023/03/23 16:39:37;;;;;;;2.63;2.00;;;16.10;28.80;;;;;;5059583;28;20724;-92
2023/03/23 16:42:05;;;;;;;3.72;2.10;;;16.00;30.30;;;;;;5059776;28;20202;-94
2023/03/23 16:44:32;;;;;;;5.32;2.22;;;16.00;30.30;;;;;;5051765;28;20642;-93
2023/03/23 16:46:59;;;;;;;3.70;2.03;;;16.00;34.10;;;;;;5055625;28;20202;-93
2023/03/23 16:49:26;;;;;;;2.55;2.22;;;15.90;32.60;;;;;;5061402;28;20197;-95
2023/03/23 16:54:45;;;;;;;3.47;2.42;;;15.80;36.30;;;;;;5036972;23;20233;-92
2023/03/23 16:57:27;;;;;;;6.13;2.70;;;15.70;38.50;;;;;;5014710;28;20218;-93
2023/03/23 16:59:57;;;;;;;4.35;2.50;;;15.60;38.30;;;;;;5034940;28;20223;-93
2023/03/23 17:02:24;;;;;;;4.05;2.53;;;15.60;39.30;;;;;;5036225;28;21198;-90
2023/03/23 17:04:51;;;;;;;5.18;2.35;;;15.60;39.40;;;;;;5031392;28;20619;-91
2023/03/23 17:07:19;;;;;;;5.47;2.97;;;15.50;41.20;;;;;;5015125;28;20199;-91
2023/03/23 17:09:46;;;;;;;3.05;2.42;;;15.50;44.20;;;;;;5027405;28;20203;-87
2023/03/23 17:12:13;;;;;;;7.05;2.95;;;15.50;42.60;;;;;;5029018;28;20679;-90
2023/03/23 17:14:40;;;;;;;53.90;9.95;;;15.50;42.60;;;;;;5029331;28;20206;-90
2023/03/23 17:17:07;;;;;;;5.93;2.55;;;15.50;42.20;;;;;;5016078;28;20212;-89
2023/03/23 17:19:34;;;;;;;7.85;2.75;;;15.50;40.10;;;;;;5028200;28;20205;-90
2023/03/23 17:22:01;;;;;;;2.90;2.40;;;15.50;40.90;;;;;;5010558;28;20265;-88
2023/03/23 17:24:30;;;;;;;4.55;2.20;;;15.40;42.40;;;;;;5013778;28;20216;-94
2023/03/23 17:26:57;;;;;;;5.93;2.70;;;15.30;43.30;;;;;;5011782;28;20683;-89
2023/03/23 17:29:24;;;;;;;3.55;2.65;;;15.20;46.10;;;;;;4998590;28;20218;-90
2023/03/23 17:31:51;;;;;;;3.30;2.50;;;15.10;47.30;;;;;;4972876;28;20270;-90
2023/03/23 17:34:18;;;;;;;3.53;2.90;;;15.00;48.00;;;;;;5007320;28;20207;-89
2023/03/23 17:36:45;;;;;;;4.72;3.22;;;15.00;48.90;;;;;;5003159;28;20210;-89
2023/03/23 17:39:12;;;;;;;4.38;3.03;;;14.90;48.90;;;;;;5002104;28;20206;-89
2023/03/23 17:41:40;;;;;;;5.07;2.70;;;14.90;48.00;;;;;;5009941;28;20227;-89
2023/03/23 17:44:07;;;;;;;5.20;3.40;;;14.90;47.40;;;;;;5008983;28;20207;-92
2023/03/23 17:46:34;;;;;;;4.82;3.42;;;14.80;48.20;;;;;;4988342;28;20204;-88
2023/03/23 17:49:02;;;;;;;10.00;4.03;;;14.80;51.20;;;;;;5008286;28;20196;-89
2023/03/23 17:51:29;;;;;;;4.85;2.63;;;14.70;51.10;;;;;;5011162;28;20721;-89
2023/03/23 17:53:58;;;;;;;3.05;2.35;;;14.70;51.10;;;;;;4976702;28;20645;-93
2023/03/23 17:56:26;;;;;;;3.33;2.40;;;14.60;48.50;;;;;;5017063;28;20261;-90
2023/03/23 17:58:57;;;;;;;7.03;2.70;;;14.60;50.60;;;;;;5009866;28;20195;-91
2023/03/23 18:01:24;;;;;;;8.15;3.42;;;14.50;50.90;;;;;;4990349;28;20219;-91
2023/03/23 18:03:51;;;;;;;4.80;2.70;;;14.50;50.90;;;;;;5009730;28;20500;-91
2023/03/23 18:06:19;;;;;;;5.40;4.07;;;14.50;50.80;;;;;;5014796;28;20207;-91
2023/03/23 18:08:46;;;;;;;8.00;5.40;;;14.50;50.90;;;;;;4996365;28;20202;-93
2023/03/23 18:11:13;;;;;;;5.82;3.25;;;14.60;51.00;;;;;;5011384;28;20199;-92
2023/03/23 18:13:40;;;;;;;7.65;4.55;;;14.80;51.20;;;;;;5012028;28;20229;-92
2023/03/23 18:16:10;;;;;;;7.00;4.47;;;14.80;49.70;;;;;;4989965;28;20199;-91
2023/03/23 18:18:37;;;;;;;6.47;3.40;;;14.80;51.00;;;;;;5012611;28;20205;-91
2023/03/23 18:21:07;;;;;;;4.75;2.95;;;14.70;50.60;;;;;;4980887;28;20251;-91
2023/03/23 18:26:17;;;;;;;6.65;3.40;;;14.50;53.20;;;;;;5014103;28;20206;-91
2023/03/23 18:28:48;;;;;;;5.45;3.40;;;14.40;54.00;;;;;;5016248;28;20670;-92
2023/03/23 18:31:17;;;;;;;5.63;3.80;;;14.30;56.70;;;;;;5026482;28;20186;-92
2023/03/23 18:33:46;;;;;;;5.65;3.60;;;14.40;55.30;;;;;;5033162;28;20179;-94
2023/03/23 18:36:15;;;;;;;7.13;3.90;;;14.40;55.00;;;;;;5028951;28;20214;-92
2023/03/23 18:38:43;;;;;;;11.90;7.80;;;14.50;57.80;;;;;;5013318;28;20199;-92
2023/03/23 18:41:11;;;;;;;33.13;25.67;;;14.50;56.40;;;;;;5008839;28;20224;-91
2023/03/23 18:43:39;;;;;;;13.75;9.65;;;14.60;53.20;;;;;;4991971;28;20234;-92
2023/03/23 18:46:07;;;;;;;8.00;5.20;;;14.60;54.20;;;;;;5009526;28;20270;-95
2023/03/23 18:48:36;;;;;;;16.13;9.23;;;14.60;54.20;;;;;;5009944;28;20199;-91
2023/03/23 18:51:04;;;;;;;10.50;8.55;;;14.50;57.90;;;;;;4986120;28;20210;-90
2023/03/23 18:53:31;;;;;;;8.13;6.75;;;14.50;55.70;;;;;;5005971;28;20643;-91
2023/03/23 18:56:06;;;;;;;10.20;7.15;;;14.40;56.90;;;;;;5008062;28;20214;-90
2023/03/23 18:58:35;;;;;;;10.75;6.30;;;14.30;58.30;;;;;;5009064;28;20199;-91
2023/03/23 19:01:04;;;;;;;11.93;8.05;;;14.20;60.70;;;;;;5006209;28;20710;-91
2023/03/23 19:03:33;;;;;;;10.00;7.60;;;14.10;60.30;;;;;;5004615;28;20196;-92
2023/03/23 19:06:03;;;;;;;11.20;8.82;;;14.20;61.70;;;;;;4990853;28;20671;-91
2023/03/23 19:08:32;;;;;;;8.63;6.00;;;14.20;58.70;;;;;;4998360;28;20227;-92
2023/03/23 19:13:45;;;;;;;9.57;6.63;;;14.20;59.40;;;;;;5001580;28;20620;-90
2023/03/23 19:16:12;;;;;;;7.97;5.90;;;14.10;61.80;;;;;;5002862;28;20207;-91
2023/03/23 19:18:39;;;;;;;7.38;5.30;;;14.10;62.90;;;;;;4987141;28;20199;-91
2023/03/23 19:23:48;;;;;;;6.40;3.88;;;14.10;59.00;;;;;;5005012;28;20195;-91
2023/03/23 19:26:38;;;;;;;5.70;4.05;;;14.00;58.90;;;;;;5015369;28;20207;-92
2023/03/23 19:29:06;;;;;;;5.72;3.40;;;14.00;60.90;;;;;;5010340;28;20641;-91